Pine Village, Pennsylvania
Current Conditions -  °F | °C
As of 5:54 AM on Thursday 27 Nov 2014 (Local Time) from KIPT Reporting Station
Overcast Overcast  
Wind Chill: 24°   Ceiling: 4300
Heat Index: 31°   Visibility: 10mi
Dew Point: 28°   Wind: 7mph
Humidity: 89%   Direction: 250°WSW
Pressure: 29.99"   Gusts: NA
Location:  41.3465°N, 77.3228°W
Report Text: KIPT 271054Z AUTO 25006KT 10SM SCT028 OVC043 M01/M02 A2999 RMK AO2 SLP160 T10061022
Loading
Personal Weather Stations






























Interactive Weather Map New forecast layout! Learn more

10-Day Weather Forecast

Advertisements
Track Severe Weather on mobile